San Carlos, CA

12:10 PM PDT on August 23, 2014 (GMT -0700)
San Carlos | Change Station
CLOSE
Current Station
Airport
Location: San Carlos,
Elevation: 3 ft
Nearby Weather Stations

Elev 3 ft 37.51 °N, 122.25 °W | Updated 23 minutes ago

Clear
Clear
66 °F
Feels Like 66 °F
N
8
Wind Variable Wind from NNE

Today
High -- | Low -- °F
--% Chance of Precip.
Yesterday
High -- | Low -- °F
Precip. -- in
6:31 AM 7:50 PM
Waning Crescent, 3% visible
Pressure 29.96 in
Visibility 10.0 miles
Clouds Clear
Dew Point 55 °F
Humidity 68%
Rainfall 0.00 in
Snow Depth Not available.
UV 9 out of 12
Pollen 5.90 out of 12
Ozone Good
PM2.5 Good
Flu Activity Not available.
METAR KSQL 231847Z 02007KT 10SM SKC 19/13 A2996

More Conditions Fewer Conditions

Pressure 29.96 in
Visibility 10.0 miles
Clouds Clear
Dew Point 55 °F
Humidity 68%
Rainfall 0.00 in
Snow Depth Not available.
UV 9 out of 12
Pollen 5.90 out of 12
Ozone Good
PM2.5 Good
Flu Activity Not available.
METAR KSQL 231847Z 02007KT 10SM SKC 19/13 A2996

More Conditions Fewer Conditions

10-Day Weather Forecast

Almanac

Astronomy

Aug. 23, 2014 Rise Set
Actual Time 6:31 AM PDT 7:50 PM PDT
Civil Twilight 6:04 AM PDT 8:17 PM PDT
Nautical Twilight 5:32 AM PDT 8:50 PM PDT
Astronomical Twilight 4:57 AM PDT 9:24 PM PDT
Moon 4:53 AM PDT 6:38 PM PDT
Length of Visible Light 14h 13m
Length of Day
13h 18m
Tomorrow will be 2m 13s shorter.
Waning Crescent, 3% of the Moon is Illuminated
Today
Waning Crescent
Aug 25
New
Sep 2
First Quarter
Sep 8
Full
Sep 15
Last Quarter

Today's Extremes

State Highs State Lows

Community

WunderPhotos

Upload Photos

1,746,585 photos uploaded!

WunderBlogs® & News

Nearby

Air Quality

  Air Quality AQ Index Pollutant
Yesterday Good
PM2.5
Yesterday Good
OZONE
Current Good
PM2.5
Current Good
OZONE
Saturday Good
OZONE
Sunday Good
OZONE
Monday Good
OZONE
Tuesday Good
PM2.5
Wednesday Moderate
PM2.5

Snow Depth

Station Depth Elevation
Blue Lakes 0 in 8000 ft
Leavitt Lake 0 in 9400 ft
Leavitt Meadows 0 in 7200 ft
Summit Meadow 0 in 9122 ft
Adin Mountain 0 in 6200 ft

Earthquake Activity

City Distance Mag. Time & Date
Coalinga, California 135 miles 2.5 7:03 AM PDT
2014-08-18
Berkeley, California 25 miles 2.6 7:41 PM PDT
2014-08-16
Minimum magnitude displayed is 2.5.

Coastal Water Temperatures

Place Temperature
No Stations Reporting

Nearby Weather Stations